createdAt,value
2023-01-03T00:01:43.551Z,1.81
2023-01-03T00:04:10.980Z,1.79
2023-01-03T00:06:40.773Z,1.81
2023-01-03T00:09:10.234Z,1.78
2023-01-03T00:11:56.234Z,1.74
2023-01-03T00:14:27.009Z,1.71
2023-01-03T00:16:56.807Z,1.70
2023-01-03T00:19:25.809Z,1.67
2023-01-03T00:21:53.579Z,1.57
2023-01-03T00:24:20.444Z,1.49
2023-01-03T00:26:47.564Z,1.51
2023-01-03T00:29:15.648Z,1.50
2023-01-03T00:31:43.203Z,1.52
2023-01-03T00:34:10.609Z,1.52
2023-01-03T00:36:38.487Z,1.52
2023-01-03T00:39:06.683Z,1.52
2023-01-03T00:41:33.671Z,1.47
2023-01-03T00:44:00.983Z,1.53
2023-01-03T00:46:27.994Z,1.54
2023-01-03T00:48:55.247Z,1.57
2023-01-03T00:51:27.295Z,1.59
2023-01-03T00:53:56.280Z,1.59
2023-01-03T00:56:26.186Z,1.57
2023-01-03T00:58:53.918Z,1.58
2023-01-03T01:01:29.992Z,1.54
2023-01-03T01:04:00.039Z,1.57
2023-01-03T01:06:30.224Z,1.50
2023-01-03T01:08:59.027Z,1.52
2023-01-03T01:11:27.767Z,1.49
2023-01-03T01:13:55.480Z,1.53
2023-01-03T01:16:31.341Z,1.51
2023-01-03T01:19:01.516Z,1.55
2023-01-03T01:21:30.775Z,1.54
2023-01-03T01:24:00.198Z,1.57
2023-01-03T01:26:27.439Z,1.51
2023-01-03T01:28:55.395Z,1.46
2023-01-03T01:31:24.845Z,1.42
2023-01-03T01:33:52.541Z,1.42
2023-01-03T01:36:29.474Z,1.36
2023-01-03T01:39:02.235Z,1.31
2023-01-03T01:41:51.786Z,1.31
2023-01-03T01:44:42.415Z,1.26
2023-01-03T01:47:27.465Z,1.21
2023-01-03T01:50:35.199Z,1.19
2023-01-03T01:53:10.681Z,1.15
2023-01-03T01:55:42.557Z,1.05
2023-01-03T01:58:10.253Z,1.04
2023-01-03T02:00:38.025Z,1.01
2023-01-03T02:03:05.197Z,0.95
2023-01-03T02:05:35.196Z,0.93
2023-01-03T02:08:03.002Z,0.93
2023-01-03T02:10:54.391Z,0.94
2023-01-03T02:13:24.040Z,0.92
2023-01-03T02:16:02.737Z,0.88
2023-01-03T02:18:32.455Z,0.86
2023-01-03T02:21:36.515Z,0.84
2023-01-03T02:24:30.731Z,0.87
2023-01-03T02:27:15.550Z,0.88
2023-01-03T02:30:04.550Z,0.87
2023-01-03T02:32:47.100Z,0.79
2023-01-03T02:35:38.723Z,0.73
2023-01-03T02:38:15.395Z,0.71
2023-01-03T02:40:50.822Z,0.68
2023-01-03T02:43:27.834Z,0.66
2023-01-03T02:46:29.999Z,0.62
2023-01-03T02:49:10.701Z,0.58
2023-01-03T02:51:47.178Z,0.56
2023-01-03T02:54:21.250Z,0.59
2023-01-03T02:56:48.150Z,0.59
2023-01-03T02:59:18.996Z,0.48
2023-01-03T03:01:46.359Z,0.56
2023-01-03T03:04:14.603Z,0.57
2023-01-03T04:24:57.523Z,-0.31
2023-01-03T04:27:24.506Z,-0.27
2023-01-03T04:29:51.373Z,-0.28
2023-01-03T04:32:18.222Z,-0.18
2023-01-03T04:34:45.126Z,-0.15
2023-01-03T04:37:12.174Z,-0.12
2023-01-03T04:39:39.130Z,-0.07
2023-01-03T04:42:25.998Z,-0.08
2023-01-03T07:01:04.389Z,-0.54
2023-01-03T07:03:32.297Z,-0.50
2023-01-03T07:05:59.705Z,-0.48
2023-01-03T07:08:26.551Z,-0.33
2023-01-03T07:10:54.627Z,-0.30
2023-01-03T07:13:40.061Z,-0.26
2023-01-03T07:16:07.619Z,-0.23
2023-01-03T07:18:34.488Z,-0.20
2023-01-03T07:21:05.584Z,-0.18
2023-01-03T07:23:32.718Z,-0.04
2023-01-03T07:25:59.911Z,0.14
2023-01-03T07:28:26.859Z,0.39
2023-01-03T07:30:59.955Z,0.59
2023-01-03T07:33:26.935Z,0.87
2023-01-03T07:36:07.575Z,1.19
2023-01-03T07:38:39.008Z,1.57
2023-01-03T07:41:08.402Z,1.76
2023-01-03T07:43:39.418Z,1.74
2023-01-03T07:46:14.490Z,1.81
2023-01-03T07:48:42.899Z,1.85
2023-01-03T07:51:11.701Z,2.03
2023-01-03T07:53:39.501Z,2.17
2023-01-03T07:56:12.925Z,2.32
2023-01-03T07:58:44.883Z,2.47
2023-01-03T08:01:14.841Z,2.58
2023-01-03T08:03:42.830Z,2.93
2023-01-03T08:06:12.734Z,3.00
2023-01-03T08:08:40.116Z,3.26
2023-01-03T08:11:26.091Z,3.39
2023-01-03T08:13:53.219Z,3.91
2023-01-03T08:16:20.175Z,4.25
2023-01-03T08:18:47.137Z,4.53
2023-01-03T08:21:16.015Z,4.69
2023-01-03T08:23:43.838Z,4.77
2023-01-03T08:26:16.676Z,5.07
2023-01-03T08:28:44.902Z,5.13
2023-01-03T08:31:26.948Z,5.28
2023-01-03T08:33:58.024Z,5.46
2023-01-03T08:36:27.195Z,5.54
2023-01-03T08:39:02.741Z,5.51
2023-01-03T08:41:33.490Z,5.54
2023-01-03T08:44:02.913Z,5.75
2023-01-03T08:46:33.282Z,6.14
2023-01-03T08:49:00.747Z,6.55
2023-01-03T08:51:30.052Z,6.68
2023-01-03T08:53:56.971Z,6.65
2023-01-03T08:56:23.825Z,6.74
2023-01-03T08:58:50.800Z,6.91
2023-01-03T09:01:17.822Z,7.00
2023-01-03T09:03:44.911Z,6.98
2023-01-03T09:06:11.867Z,6.83
2023-01-03T09:08:39.864Z,6.76
2023-01-03T09:11:07.825Z,6.73
2023-01-03T09:13:36.105Z,6.75
2023-01-03T09:16:11.006Z,6.91
2023-01-03T09:18:40.864Z,7.30
2023-01-03T09:21:08.940Z,7.67
2023-01-03T09:23:36.596Z,7.80
2023-01-03T09:26:04.366Z,7.88
2023-01-03T09:28:31.340Z,7.97
2023-01-03T09:30:58.665Z,8.00
2023-01-03T09:33:25.950Z,7.94
2023-01-03T09:35:54.444Z,7.91
2023-01-03T09:38:22.737Z,7.93
2023-01-03T09:41:01.674Z,8.11
2023-01-03T09:43:41.352Z,8.56
2023-01-03T09:46:21.375Z,8.90
2023-01-03T09:48:50.244Z,9.13
2023-01-03T09:51:44.645Z,9.13
2023-01-03T09:54:41.284Z,9.21
2023-01-03T09:57:36.813Z,9.31
2023-01-03T10:00:31.387Z,9.42
2023-01-03T10:03:29.536Z,9.54
2023-01-03T10:06:08.610Z,9.53
2023-01-03T10:08:57.167Z,9.76
2023-01-03T10:11:38.878Z,9.96
2023-01-03T10:14:05.719Z,10.04
2023-01-03T10:17:09.917Z,10.13
2023-01-03T10:20:16.100Z,10.22
2023-01-03T10:22:45.376Z,10.15
2023-01-03T10:25:23.195Z,10.19
2023-01-03T10:27:57.246Z,10.16
2023-01-03T10:31:00.832Z,10.50
2023-01-03T10:33:42.599Z,10.59
2023-01-03T10:36:09.955Z,10.83
2023-01-03T10:38:44.778Z,10.97
2023-01-03T10:41:31.822Z,10.79
2023-01-03T10:44:02.988Z,10.39
2023-01-03T10:46:31.315Z,10.04
2023-01-03T10:49:29.781Z,9.75
2023-01-03T10:52:19.758Z,9.49
2023-01-03T10:54:54.054Z,9.50
2023-01-03T10:57:44.471Z,9.48
2023-01-03T11:00:20.920Z,9.79
2023-01-03T11:02:50.723Z,9.96
2023-01-03T11:05:20.549Z,9.99
2023-01-03T11:07:58.556Z,9.96
2023-01-03T11:10:48.639Z,10.15
2023-01-03T11:13:27.427Z,10.66
2023-01-03T11:16:00.264Z,10.98
2023-01-03T11:18:28.703Z,11.35
2023-01-03T11:21:23.883Z,11.64
2023-01-03T11:24:08.537Z,11.63
2023-01-03T11:27:14.363Z,11.72
2023-01-03T11:30:18.412Z,11.88
2023-01-03T11:33:21.515Z,12.29
2023-01-03T11:36:16.422Z,12.53
2023-01-03T11:39:26.397Z,12.63
2023-01-03T11:42:05.784Z,12.89
2023-01-03T11:45:08.443Z,12.83
2023-01-03T11:48:08.296Z,12.87
2023-01-03T11:50:49.728Z,13.01
2023-01-03T11:53:37.924Z,13.10
2023-01-03T11:56:23.446Z,13.17
2023-01-03T11:59:02.740Z,13.47
2023-01-03T12:01:49.318Z,13.95
2023-01-03T12:04:31.733Z,14.32
2023-01-03T12:07:21.408Z,14.23
2023-01-03T12:09:54.726Z,13.91
2023-01-03T12:12:25.202Z,13.74
2023-01-03T12:15:03.551Z,14.00
2023-01-03T12:17:44.335Z,14.12
2023-01-03T12:20:20.519Z,14.31
2023-01-03T12:23:09.985Z,14.44
2023-01-03T12:25:38.151Z,14.67
2023-01-03T12:28:10.935Z,14.99
2023-01-03T12:30:37.938Z,15.10
2023-01-03T12:33:20.467Z,15.19
2023-01-03T12:36:21.712Z,15.53
2023-01-03T12:39:32.645Z,15.91
2023-01-03T12:42:04.024Z,16.34
2023-01-03T12:44:43.982Z,16.52
2023-01-03T12:47:41.309Z,16.89
2023-01-03T12:50:33.046Z,17.24
2023-01-03T12:53:13.289Z,17.20
2023-01-03T12:56:01.035Z,17.08
2023-01-03T12:58:39.607Z,17.26
2023-01-03T13:01:09.621Z,17.15
2023-01-03T13:03:49.978Z,17.18
2023-01-03T13:06:32.035Z,17.44
2023-01-03T13:09:05.679Z,17.83
2023-01-03T13:11:53.494Z,18.12
2023-01-03T13:14:26.064Z,18.45
2023-01-03T13:17:16.018Z,18.77
2023-01-03T13:19:51.747Z,19.16
2023-01-03T13:22:41.526Z,19.22
2023-01-03T13:25:27.016Z,19.17
2023-01-03T13:27:57.025Z,19.21
2023-01-03T13:30:27.655Z,19.24
2023-01-03T13:33:01.586Z,19.28
2023-01-03T13:35:43.174Z,19.11
2023-01-03T13:38:32.079Z,19.02
2023-01-03T13:41:19.487Z,18.79
2023-01-03T13:43:51.866Z,18.70
2023-01-03T13:46:22.952Z,18.83
2023-01-03T13:48:59.063Z,19.09
2023-01-03T13:51:41.286Z,18.98
2023-01-03T13:54:11.254Z,18.66
2023-01-03T13:56:44.117Z,18.73
2023-01-03T13:59:26.781Z,18.47
2023-01-03T14:02:00.095Z,18.30
2023-01-03T14:04:33.914Z,18.03
2023-01-03T14:07:28.335Z,17.73
2023-01-03T14:10:19.569Z,16.80
2023-01-03T14:13:23.194Z,16.09
2023-01-03T14:16:06.143Z,15.55
2023-01-03T14:18:35.068Z,15.08
2023-01-03T14:21:04.594Z,14.75
2023-01-03T14:26:24.181Z,14.18
2023-01-03T14:28:53.840Z,14.04
2023-01-03T14:31:23.459Z,13.85
2023-01-03T14:33:59.640Z,13.74
2023-01-03T14:36:27.662Z,13.62
2023-01-03T14:39:05.432Z,13.48
2023-01-03T14:41:38.789Z,13.33
2023-01-03T14:44:11.563Z,13.24
2023-01-03T14:46:41.029Z,13.12
2023-01-03T14:49:22.221Z,13.02
2023-01-03T14:51:49.161Z,12.86
2023-01-03T14:54:19.365Z,12.75
2023-01-03T14:56:48.664Z,12.61
2023-01-03T14:59:20.599Z,12.45
2023-01-03T15:01:48.021Z,12.33
2023-01-03T15:04:17.223Z,12.25
2023-01-03T15:07:29.133Z,12.19
2023-01-03T15:10:34.306Z,12.03
2023-01-03T15:13:04.930Z,11.91
2023-01-03T15:15:38.668Z,11.81
2023-01-03T15:18:09.719Z,11.67
2023-01-03T15:20:45.412Z,11.61
2023-01-03T15:23:34.722Z,11.54
2023-01-03T15:26:01.883Z,11.45
2023-01-03T15:28:29.170Z,11.32
2023-01-03T15:31:12.389Z,11.21
2023-01-03T15:33:41.280Z,11.16
2023-01-03T15:36:18.511Z,11.12
2023-01-03T15:38:48.995Z,11.02
2023-01-03T15:41:49.047Z,10.99
2023-01-03T15:44:21.298Z,10.94
2023-01-03T15:46:50.051Z,10.86
2023-01-03T15:49:23.568Z,10.83
2023-01-03T15:51:50.417Z,10.73
2023-01-03T15:54:19.555Z,10.71
2023-01-03T15:57:08.076Z,10.67
2023-01-03T15:59:43.339Z,10.60
2023-01-03T16:02:16.872Z,10.66
2023-01-03T16:04:46.506Z,10.63
2023-01-03T16:07:15.118Z,10.58
2023-01-03T16:09:43.382Z,10.57
2023-01-03T16:12:17.799Z,10.56
2023-01-03T16:14:48.250Z,10.49
2023-01-03T16:17:24.539Z,10.45
2023-01-03T16:19:53.364Z,10.43
2023-01-03T16:22:34.332Z,10.38
2023-01-03T16:25:02.959Z,10.39
2023-01-03T16:27:29.983Z,10.34
2023-01-03T16:29:56.866Z,10.28
2023-01-03T16:32:28.918Z,10.32
2023-01-03T16:35:08.430Z,10.24
2023-01-03T16:37:35.459Z,10.24
2023-01-03T16:40:02.390Z,10.21
2023-01-03T16:42:29.521Z,10.17
2023-01-03T16:44:56.494Z,10.14
2023-01-03T16:47:31.439Z,10.11
2023-01-03T16:50:14.440Z,10.04
2023-01-03T16:52:47.873Z,10.04
2023-01-03T16:55:27.509Z,10.05
2023-01-03T16:57:55.457Z,10.11
2023-01-03T17:00:28.267Z,10.08
2023-01-03T17:02:56.417Z,10.06
2023-01-03T17:05:23.777Z,10.02
2023-01-03T17:07:53.208Z,9.97
2023-01-03T17:10:25.790Z,10.01
2023-01-03T17:12:54.131Z,9.99
2023-01-03T17:15:21.178Z,10.02
2023-01-03T17:17:48.062Z,10.05
2023-01-03T17:20:19.467Z,10.01
2023-01-03T17:22:57.740Z,9.99
2023-01-03T17:25:24.906Z,10.00
2023-01-03T17:27:59.383Z,9.98
2023-01-03T17:30:29.880Z,9.94
2023-01-03T17:32:56.824Z,9.95
2023-01-03T17:35:23.789Z,9.69
2023-01-03T17:40:41.013Z,9.74
2023-01-03T17:43:17.318Z,9.69
2023-01-03T17:46:03.424Z,9.65
2023-01-03T17:48:49.352Z,9.60
2023-01-03T17:51:16.493Z,9.58
2023-01-03T17:53:44.624Z,9.59
2023-01-03T17:56:16.745Z,9.55
2023-01-03T17:58:45.635Z,9.54
2023-01-03T18:01:16.321Z,9.51
2023-01-03T18:03:48.583Z,9.49
2023-01-03T18:06:21.744Z,9.49
2023-01-03T18:08:49.722Z,9.47
2023-01-03T18:11:19.810Z,9.46
2023-01-03T18:13:48.787Z,9.49
2023-01-03T18:16:18.670Z,9.46
2023-01-03T18:18:46.516Z,9.51
2023-01-03T18:21:23.190Z,9.47
2023-01-03T18:24:02.207Z,9.55
2023-01-03T18:26:44.007Z,9.50
2023-01-03T18:29:13.509Z,9.48
2023-01-03T18:31:40.581Z,9.44
2023-01-03T18:34:10.301Z,9.46
2023-01-03T18:36:43.391Z,9.43
2023-01-03T18:39:17.211Z,9.41
2023-01-03T18:41:45.985Z,9.45
2023-01-03T18:44:23.238Z,9.44
2023-01-03T18:46:51.950Z,9.43
2023-01-03T18:49:19.359Z,9.42
2023-01-03T18:51:49.745Z,9.44
2023-01-03T18:54:20.426Z,9.45
2023-01-03T18:56:47.812Z,9.45
2023-01-03T18:59:22.720Z,9.46
2023-01-03T19:01:50.343Z,9.47
2023-01-03T19:04:17.896Z,9.37
2023-01-03T19:06:47.386Z,9.42
2023-01-03T19:09:17.698Z,9.43
2023-01-03T19:11:46.103Z,9.40
2023-01-03T19:14:14.764Z,9.38
2023-01-03T19:16:42.083Z,9.35
2023-01-03T19:19:10.644Z,9.37
2023-01-03T19:21:41.870Z,9.30
2023-01-03T19:24:19.948Z,9.31
2023-01-03T19:27:10.644Z,9.28
2023-01-03T19:29:38.488Z,9.25
2023-01-03T19:32:34.233Z,9.27
2023-01-03T19:35:01.211Z,9.29
2023-01-03T19:37:28.117Z,9.29
2023-01-03T19:39:55.006Z,9.27
2023-01-03T19:42:41.395Z,9.36
2023-01-03T19:45:17.229Z,9.36
2023-01-03T19:47:44.268Z,9.36
2023-01-03T19:50:19.217Z,9.36
2023-01-03T19:52:47.598Z,9.32
2023-01-03T19:55:14.827Z,9.31
2023-01-03T19:57:47.042Z,9.29
2023-01-03T20:00:25.570Z,9.28
2023-01-03T20:02:56.659Z,9.24
2023-01-03T20:05:35.268Z,9.22
2023-01-03T20:08:12.245Z,9.18
2023-01-03T20:10:44.183Z,9.19
2023-01-03T20:13:17.369Z,9.11
2023-01-03T20:15:45.395Z,9.09
2023-01-03T20:18:36.938Z,9.07
2023-01-03T20:21:10.110Z,9.05
2023-01-03T20:23:40.848Z,8.98
2023-01-03T20:26:17.668Z,8.96
2023-01-03T20:28:45.787Z,8.94
2023-01-03T20:31:18.360Z,8.96
2023-01-03T20:33:48.021Z,8.93
2023-01-03T20:36:23.127Z,8.93
2023-01-03T20:38:53.420Z,8.86
2023-01-03T20:41:20.594Z,8.88
2023-01-03T20:43:52.492Z,8.88
2023-01-03T20:46:22.597Z,8.86
2023-01-03T20:49:01.152Z,8.84
2023-01-03T20:51:28.257Z,8.84
2023-01-03T20:53:55.638Z,8.81
2023-01-03T20:56:23.349Z,8.87
2023-01-03T20:58:50.416Z,8.83
2023-01-03T21:01:17.500Z,8.82
2023-01-03T21:03:44.727Z,8.83
2023-01-03T21:06:21.250Z,8.79
2023-01-03T21:08:54.926Z,8.79
2023-01-03T21:11:32.913Z,8.73
2023-01-03T21:14:01.207Z,8.69
2023-01-03T21:16:39.497Z,8.71
2023-01-03T21:19:08.258Z,8.67
2023-01-03T21:21:35.286Z,8.65
2023-01-03T21:24:02.912Z,8.59
2023-01-03T21:26:29.888Z,8.61
2023-01-03T21:28:58.047Z,8.60
2023-01-03T21:31:26.225Z,8.64
2023-01-03T21:33:53.268Z,8.63
2023-01-03T21:36:27.753Z,8.62
2023-01-03T21:38:55.451Z,8.56
2023-01-03T21:41:28.422Z,8.54
2023-01-03T21:43:59.718Z,8.55
2023-01-03T21:46:27.453Z,8.54
2023-01-03T21:48:54.806Z,8.50
2023-01-03T21:51:35.055Z,8.53
2023-01-03T21:54:07.169Z,8.50
2023-01-03T21:56:37.002Z,8.48
2023-01-03T21:59:04.654Z,8.47
2023-01-03T22:01:51.743Z,8.43
2023-01-03T22:04:19.715Z,8.45
2023-01-03T22:06:47.011Z,8.47
2023-01-03T22:09:33.868Z,8.44
2023-01-03T22:12:00.859Z,8.47
2023-01-03T22:14:27.701Z,8.53
2023-01-03T22:16:54.798Z,8.52
2023-01-03T22:19:21.802Z,8.51
2023-01-03T22:21:49.056Z,8.56
2023-01-03T22:24:15.995Z,8.55
2023-01-03T22:26:42.806Z,8.59
2023-01-03T22:29:09.696Z,8.60
2023-01-03T22:31:36.678Z,8.58
2023-01-03T22:34:03.786Z,8.56
2023-01-03T22:36:30.669Z,8.59
2023-01-03T22:38:57.506Z,8.55
2023-01-03T22:41:24.945Z,8.59
2023-01-03T22:43:52.571Z,8.55
2023-01-03T22:46:19.677Z,8.52
2023-01-03T22:48:46.587Z,8.52
2023-01-03T22:51:15.904Z,8.49
2023-01-03T22:53:44.814Z,8.42
2023-01-03T22:56:15.377Z,8.47
2023-01-03T22:58:43.011Z,8.45
2023-01-03T23:01:16.216Z,8.42
2023-01-03T23:03:45.198Z,8.48
2023-01-03T23:06:18.392Z,8.48
2023-01-03T23:08:50.362Z,8.48
2023-01-03T23:11:39.365Z,8.53
2023-01-03T23:14:11.676Z,8.52
2023-01-03T23:16:39.033Z,8.53
2023-01-03T23:19:08.405Z,8.48
2023-01-03T23:21:35.447Z,8.47
2023-01-03T23:24:02.797Z,8.52
2023-01-03T23:26:30.094Z,8.56
2023-01-03T23:28:59.045Z,8.55
2023-01-03T23:31:27.744Z,8.56
2023-01-03T23:33:56.369Z,8.63
2023-01-03T23:36:23.927Z,8.55
2023-01-03T23:38:51.073Z,8.62
2023-01-03T23:41:18.097Z,8.62
2023-01-03T23:43:44.990Z,8.62
2023-01-03T23:46:20.995Z,8.54
2023-01-03T23:48:48.577Z,8.56
2023-01-03T23:51:15.558Z,8.51
2023-01-03T23:53:43.787Z,8.55
2023-01-03T23:56:15.672Z,8.57
2023-01-03T23:58:43.012Z,8.57
